SXS3QB LTBJ-LTAU
Flight info
| Callsign | SXS3QB |
|---|---|
| Flight time | N/A |
| Altitude | 39000 |
| Route | KULAR1T/34R KULAR UT54 KFK UR32 HAY UW705 ERMOD W76 SARIZ |
| Aircraft | B38M/M-SDE1FGHILORVWXY/HB1 |
Departure
| Time | 2026-04-27 12:45 |
|---|---|
| Airport | Adnan Menderes International Airport (LTBJ) |
Arrival
| Time | N/A |
|---|---|
| Airport | Kayseri Erkilet International Airport (LTAU) |
| Time | Latitude | Longitude | Altitude | Speed | Heading |
|---|---|---|---|---|---|
| 2026-04-27 12:29 | 38.29102 | 27.15120 | 414 ft | 0 kts | 257° |
| 2026-04-27 12:38 | 38.29104 | 27.15130 | 406 ft | 3 kts | 255° |
| 2026-04-27 12:38 | 38.29110 | 27.15154 | 411 ft | 3 kts | 245° |
| 2026-04-27 12:38 | 38.29120 | 27.15175 | 410 ft | 3 kts | 227° |
| 2026-04-27 12:39 | 38.29135 | 27.15189 | 406 ft | 3 kts | 193° |
| 2026-04-27 12:39 | 38.29146 | 27.15190 | 407 ft | 1 kts | 167° |
| 2026-04-27 12:39 | 38.29147 | 27.15190 | 407 ft | 2 kts | 167° |
| 2026-04-27 12:41 | 38.29146 | 27.15190 | 407 ft | 1 kts | 167° |
| 2026-04-27 12:42 | 38.29118 | 27.15199 | 414 ft | 9 kts | 167° |
| 2026-04-27 12:42 | 38.29024 | 27.15243 | 414 ft | 19 kts | 138° |
| 2026-04-27 12:42 | 38.28908 | 27.15327 | 415 ft | 20 kts | 167° |
| 2026-04-27 12:42 | 38.28772 | 27.15369 | 411 ft | 20 kts | 166° |
| 2026-04-27 12:43 | 38.28633 | 27.15411 | 417 ft | 21 kts | 166° |
| 2026-04-27 12:43 | 38.28480 | 27.15458 | 418 ft | 24 kts | 166° |
| 2026-04-27 12:43 | 38.28311 | 27.15509 | 413 ft | 26 kts | 167° |
| 2026-04-27 12:43 | 38.28188 | 27.15546 | 416 ft | 17 kts | 167° |
| 2026-04-27 12:44 | 38.28101 | 27.15597 | 418 ft | 14 kts | 110° |
| 2026-04-27 12:44 | 38.28119 | 27.15724 | 416 ft | 16 kts | 76° |
| 2026-04-27 12:44 | 38.28193 | 27.15798 | 418 ft | 17 kts | 347° |
| 2026-04-27 12:44 | 38.28477 | 27.15711 | 424 ft | 80 kts | 347° |
| 2026-04-27 12:45 | 38.29254 | 27.15474 | 426 ft | 146 kts | 346° |
| 2026-04-27 12:45 | 38.30290 | 27.15140 | 1009 ft | 158 kts | 345° |
| 2026-04-27 12:45 | 38.31369 | 27.14814 | 1805 ft | 167 kts | 349° |
| 2026-04-27 12:45 | 38.32600 | 27.14481 | 2413 ft | 193 kts | 349° |
| 2026-04-27 12:46 | 38.33990 | 27.14102 | 3112 ft | 217 kts | 349° |
| 2026-04-27 12:46 | 38.35540 | 27.13687 | 3827 ft | 238 kts | 350° |
| 2026-04-27 12:46 | 38.37197 | 27.13258 | 4718 ft | 246 kts | 354° |
| 2026-04-27 12:46 | 38.38921 | 27.13511 | 5472 ft | 257 kts | 24° |
| 2026-04-27 12:47 | 38.40336 | 27.14872 | 6562 ft | 258 kts | 49° |
| 2026-04-27 12:47 | 38.41416 | 27.16735 | 7487 ft | 265 kts | 52° |
| 2026-04-27 12:47 | 38.42515 | 27.18643 | 8459 ft | 269 kts | 53° |
| 2026-04-27 12:47 | 38.43554 | 27.20655 | 9386 ft | 276 kts | 64° |
| 2026-04-27 12:48 | 38.44017 | 27.23015 | 10278 ft | 283 kts | 82° |
| 2026-04-27 12:48 | 38.44256 | 27.25582 | 10810 ft | 301 kts | 81° |
| 2026-04-27 12:48 | 38.44530 | 27.28303 | 11387 ft | 315 kts | 81° |
| 2026-04-27 12:48 | 38.44825 | 27.31124 | 12134 ft | 324 kts | 81° |
| 2026-04-27 12:49 | 38.45127 | 27.33986 | 13013 ft | 329 kts | 81° |
| 2026-04-27 12:49 | 38.45437 | 27.36910 | 13813 ft | 336 kts | 81° |
| 2026-04-27 12:49 | 38.45754 | 27.39885 | 14574 ft | 340 kts | 81° |
| 2026-04-27 12:49 | 38.46076 | 27.42910 | 15360 ft | 344 kts | 81° |
| 2026-04-27 12:50 | 38.46399 | 27.45953 | 16128 ft | 349 kts | 81° |
| 2026-04-27 12:50 | 38.46726 | 27.49040 | 16877 ft | 353 kts | 81° |
| 2026-04-27 12:50 | 38.47055 | 27.52159 | 17616 ft | 357 kts | 81° |
| 2026-04-27 12:50 | 38.47384 | 27.55282 | 18341 ft | 362 kts | 81° |
| 2026-04-27 12:51 | 38.47719 | 27.58479 | 18962 ft | 365 kts | 81° |
| 2026-04-27 12:51 | 38.48058 | 27.61708 | 19575 ft | 369 kts | 81° |
| 2026-04-27 12:51 | 38.48398 | 27.64971 | 20181 ft | 373 kts | 81° |
| 2026-04-27 12:51 | 38.48744 | 27.68281 | 20767 ft | 377 kts | 81° |
| 2026-04-27 12:52 | 38.49090 | 27.71618 | 21352 ft | 381 kts | 81° |
| 2026-04-27 12:52 | 38.49439 | 27.74990 | 21950 ft | 385 kts | 81° |
| 2026-04-27 12:52 | 38.49791 | 27.78396 | 22541 ft | 389 kts | 81° |
| 2026-04-27 12:52 | 38.50145 | 27.81840 | 23141 ft | 393 kts | 81° |
| 2026-04-27 12:53 | 38.50862 | 27.88833 | 24204 ft | 400 kts | 81° |
| 2026-04-27 12:53 | 38.51224 | 27.92375 | 24693 ft | 404 kts | 81° |
| 2026-04-27 12:53 | 38.51587 | 27.95952 | 25191 ft | 407 kts | 81° |
| 2026-04-27 12:54 | 38.51951 | 27.99549 | 25692 ft | 409 kts | 81° |
| 2026-04-27 12:54 | 38.52313 | 28.03126 | 26161 ft | 413 kts | 81° |
| 2026-04-27 12:54 | 38.52680 | 28.06763 | 26645 ft | 415 kts | 81° |
| 2026-04-27 12:54 | 38.53050 | 28.10455 | 27116 ft | 418 kts | 81° |
| 2026-04-27 12:55 | 38.53420 | 28.14148 | 27582 ft | 421 kts | 81° |
| 2026-04-27 12:55 | 38.53792 | 28.17881 | 28043 ft | 424 kts | 81° |
| 2026-04-27 12:55 | 38.54165 | 28.21633 | 28480 ft | 427 kts | 81° |
| 2026-04-27 12:55 | 38.54540 | 28.25413 | 28943 ft | 430 kts | 81° |
| 2026-04-27 12:56 | 38.54915 | 28.29217 | 29384 ft | 433 kts | 81° |
| 2026-04-27 12:56 | 38.55293 | 28.33049 | 29801 ft | 435 kts | 81° |
| 2026-04-27 12:56 | 38.55670 | 28.36899 | 30197 ft | 439 kts | 81° |
| 2026-04-27 12:56 | 38.56045 | 28.40729 | 30535 ft | 441 kts | 81° |
| 2026-04-27 12:57 | 38.56424 | 28.44622 | 30888 ft | 444 kts | 81° |
| 2026-04-27 12:57 | 38.56804 | 28.48544 | 31259 ft | 446 kts | 82° |
| 2026-04-27 12:57 | 38.57187 | 28.52502 | 31596 ft | 448 kts | 82° |
| 2026-04-27 12:57 | 38.57569 | 28.56467 | 31947 ft | 450 kts | 82° |
| 2026-04-27 12:58 | 38.57952 | 28.60451 | 32290 ft | 453 kts | 82° |
| 2026-04-27 12:58 | 38.58354 | 28.64465 | 32612 ft | 455 kts | 81° |
| 2026-04-27 12:58 | 38.58771 | 28.68490 | 32951 ft | 457 kts | 81° |
| 2026-04-27 12:58 | 38.59183 | 28.72521 | 33266 ft | 460 kts | 81° |
| 2026-04-27 12:59 | 38.59598 | 28.76595 | 33585 ft | 462 kts | 81° |
| 2026-04-27 12:59 | 38.60012 | 28.80676 | 33898 ft | 464 kts | 81° |
| 2026-04-27 12:59 | 38.60423 | 28.84735 | 34208 ft | 466 kts | 81° |
| 2026-04-27 12:59 | 38.60836 | 28.88844 | 34553 ft | 466 kts | 81° |
| 2026-04-27 13:00 | 38.61250 | 28.92966 | 34910 ft | 466 kts | 81° |
| 2026-04-27 13:00 | 38.61660 | 28.97063 | 35249 ft | 466 kts | 81° |
| 2026-04-27 13:00 | 38.62072 | 29.01199 | 35585 ft | 467 kts | 81° |
| 2026-04-27 13:00 | 38.62481 | 29.05311 | 35907 ft | 467 kts | 81° |
| 2026-04-27 13:01 | 38.63098 | 29.09379 | 36223 ft | 465 kts | 75° |
| 2026-04-27 13:01 | 38.63823 | 29.13417 | 36522 ft | 466 kts | 76° |
| 2026-04-27 13:01 | 38.64514 | 29.17474 | 36823 ft | 466 kts | 76° |
| 2026-04-27 13:01 | 38.65190 | 29.21530 | 37127 ft | 467 kts | 76° |
| 2026-04-27 13:02 | 38.65853 | 29.25554 | 37411 ft | 467 kts | 76° |
| 2026-04-27 13:02 | 38.66522 | 29.29625 | 37699 ft | 467 kts | 76° |
| 2026-04-27 13:02 | 38.67187 | 29.33687 | 37968 ft | 467 kts | 76° |
| 2026-04-27 13:02 | 38.67855 | 29.37772 | 38225 ft | 468 kts | 76° |
| 2026-04-27 13:03 | 38.68519 | 29.41853 | 38487 ft | 468 kts | 77° |
| 2026-04-27 13:03 | 38.69182 | 29.45929 | 38740 ft | 468 kts | 77° |
| 2026-04-27 13:03 | 38.69844 | 29.50010 | 38922 ft | 468 kts | 77° |
| 2026-04-27 13:03 | 38.70508 | 29.54107 | 39053 ft | 469 kts | 77° |
| 2026-04-27 13:04 | 38.71817 | 29.62227 | 39072 ft | 468 kts | 77° |
| 2026-04-27 13:04 | 38.73131 | 29.70412 | 39077 ft | 468 kts | 77° |
| 2026-04-27 13:05 | 38.74438 | 29.78594 | 39089 ft | 468 kts | 77° |
| 2026-04-27 13:05 | 38.75737 | 29.86758 | 39078 ft | 468 kts | 77° |
| 2026-04-27 13:06 | 38.77031 | 29.94933 | 39084 ft | 468 kts | 77° |
| 2026-04-27 13:06 | 38.78310 | 30.03054 | 39079 ft | 468 kts | 77° |
| 2026-04-27 13:07 | 38.79592 | 30.11235 | 39085 ft | 468 kts | 77° |
| 2026-04-27 13:07 | 38.80869 | 30.19417 | 39091 ft | 468 kts | 77° |
| 2026-04-27 13:08 | 38.82138 | 30.27592 | 39085 ft | 468 kts | 77° |
| 2026-04-27 13:08 | 38.83190 | 30.34399 | 39092 ft | 468 kts | 77° |
| 2026-04-27 13:09 | 38.84452 | 30.42599 | 39095 ft | 468 kts | 77° |
| 2026-04-27 13:09 | 38.85908 | 30.52115 | 39094 ft | 467 kts | 77° |
| 2026-04-27 13:10 | 38.87155 | 30.60299 | 39098 ft | 467 kts | 77° |
| 2026-04-27 13:10 | 38.88188 | 30.67113 | 39094 ft | 467 kts | 77° |
| 2026-04-27 13:11 | 38.89425 | 30.75316 | 39097 ft | 467 kts | 77° |
| 2026-04-27 13:11 | 38.90654 | 30.83503 | 39097 ft | 466 kts | 77° |
| 2026-04-27 13:12 | 38.91878 | 30.91696 | 39098 ft | 466 kts | 77° |
| 2026-04-27 13:12 | 38.93095 | 30.99882 | 39096 ft | 466 kts | 77° |
| 2026-04-27 13:13 | 38.94299 | 31.08024 | 39093 ft | 466 kts | 78° |
| 2026-04-27 13:13 | 38.95503 | 31.16210 | 39096 ft | 466 kts | 78° |
| 2026-04-27 13:14 | 38.96702 | 31.24403 | 39100 ft | 466 kts | 78° |
| 2026-04-27 13:14 | 38.97894 | 31.32588 | 39094 ft | 466 kts | 78° |
| 2026-04-27 13:15 | 38.99075 | 31.40732 | 39091 ft | 466 kts | 78° |
| 2026-04-27 13:15 | 39.00255 | 31.48920 | 39090 ft | 466 kts | 78° |
| 2026-04-27 13:16 | 39.01431 | 31.57124 | 39091 ft | 466 kts | 78° |
| 2026-04-27 13:16 | 39.02603 | 31.65339 | 39090 ft | 466 kts | 78° |
| 2026-04-27 13:17 | 39.03761 | 31.73499 | 39088 ft | 466 kts | 78° |
| 2026-04-27 13:17 | 39.04921 | 31.81713 | 39086 ft | 466 kts | 78° |
| 2026-04-27 13:18 | 39.06074 | 31.89929 | 39086 ft | 466 kts | 78° |
| 2026-04-27 13:18 | 39.07222 | 31.98152 | 39082 ft | 466 kts | 78° |
| 2026-04-27 13:19 | 39.08359 | 32.06335 | 39085 ft | 466 kts | 78° |
| 2026-04-27 13:19 | 39.09495 | 32.14558 | 39082 ft | 466 kts | 79° |
| 2026-04-27 13:20 | 39.10627 | 32.22790 | 39081 ft | 466 kts | 79° |
| 2026-04-27 13:20 | 39.11751 | 32.31017 | 39078 ft | 466 kts | 79° |
| 2026-04-27 13:21 | 39.12870 | 32.39249 | 39077 ft | 466 kts | 79° |
| 2026-04-27 13:21 | 39.13983 | 32.47482 | 39076 ft | 466 kts | 79° |
| 2026-04-27 13:22 | 39.15089 | 32.55706 | 39078 ft | 466 kts | 79° |
| 2026-04-27 13:22 | 39.16190 | 32.63944 | 39076 ft | 466 kts | 79° |
| 2026-04-27 13:23 | 39.17279 | 32.72132 | 39074 ft | 466 kts | 79° |
| 2026-04-27 13:23 | 39.18368 | 32.80370 | 39072 ft | 466 kts | 79° |
| 2026-04-27 13:24 | 39.19450 | 32.88607 | 39067 ft | 466 kts | 79° |
| 2026-04-27 13:24 | 39.20527 | 32.96843 | 39068 ft | 466 kts | 79° |
| 2026-04-27 13:25 | 39.21599 | 33.05084 | 39067 ft | 466 kts | 79° |
| 2026-04-27 13:25 | 39.22664 | 33.13329 | 39063 ft | 466 kts | 80° |
| 2026-04-27 13:26 | 39.23724 | 33.21580 | 39064 ft | 466 kts | 80° |
| 2026-04-27 13:26 | 39.24772 | 33.29781 | 39063 ft | 466 kts | 80° |
| 2026-04-27 13:27 | 39.25299 | 33.33927 | 38951 ft | 467 kts | 80° |
| 2026-04-27 13:27 | 39.25821 | 33.38046 | 38699 ft | 464 kts | 80° |
| 2026-04-27 13:27 | 39.26341 | 33.42151 | 38418 ft | 463 kts | 80° |
| 2026-04-27 13:27 | 39.26855 | 33.46235 | 38129 ft | 460 kts | 80° |
| 2026-04-27 13:28 | 39.27366 | 33.50302 | 37841 ft | 458 kts | 80° |
| 2026-04-27 13:28 | 39.27873 | 33.54346 | 37563 ft | 455 kts | 80° |
| 2026-04-27 13:28 | 39.28376 | 33.58363 | 37280 ft | 452 kts | 80° |
| 2026-04-27 13:28 | 39.28873 | 33.62357 | 37006 ft | 449 kts | 80° |
| 2026-04-27 13:29 | 39.29367 | 33.66325 | 36739 ft | 446 kts | 80° |
| 2026-04-27 13:29 | 39.29855 | 33.70265 | 36465 ft | 444 kts | 80° |
| 2026-04-27 13:29 | 39.30340 | 33.74195 | 36203 ft | 442 kts | 80° |
| 2026-04-27 13:29 | 39.30822 | 33.78105 | 35946 ft | 439 kts | 80° |
| 2026-04-27 13:30 | 39.31174 | 33.81951 | 35556 ft | 436 kts | 89° |
| 2026-04-27 13:30 | 39.30889 | 33.85866 | 34734 ft | 442 kts | 103° |
| 2026-04-27 13:30 | 39.30100 | 33.89738 | 33854 ft | 448 kts | 103° |
| 2026-04-27 13:30 | 39.29400 | 33.93682 | 32960 ft | 452 kts | 102° |
| 2026-04-27 13:31 | 39.28719 | 33.97635 | 32343 ft | 450 kts | 102° |
| 2026-04-27 13:31 | 39.28050 | 34.01564 | 31884 ft | 445 kts | 102° |
| 2026-04-27 13:31 | 39.27389 | 34.05453 | 31376 ft | 441 kts | 102° |
| 2026-04-27 13:31 | 39.26735 | 34.09307 | 30894 ft | 437 kts | 102° |
| 2026-04-27 13:32 | 39.26085 | 34.13124 | 30413 ft | 433 kts | 102° |
| 2026-04-27 13:32 | 39.25442 | 34.16893 | 29919 ft | 430 kts | 102° |
| 2026-04-27 13:32 | 39.24800 | 34.20652 | 29378 ft | 426 kts | 102° |
| 2026-04-27 13:32 | 39.24175 | 34.24302 | 28935 ft | 421 kts | 102° |
| 2026-04-27 13:33 | 39.23545 | 34.27969 | 28489 ft | 415 kts | 101° |
| 2026-04-27 13:33 | 39.22923 | 34.31587 | 28050 ft | 411 kts | 101° |
| 2026-04-27 13:33 | 39.22305 | 34.35174 | 27618 ft | 406 kts | 101° |
| 2026-04-27 13:33 | 39.21694 | 34.38713 | 27189 ft | 402 kts | 101° |
| 2026-04-27 13:34 | 39.21089 | 34.42212 | 26768 ft | 398 kts | 101° |
| 2026-04-27 13:34 | 39.20488 | 34.45677 | 26352 ft | 394 kts | 101° |
| 2026-04-27 13:34 | 39.19891 | 34.49119 | 25940 ft | 391 kts | 101° |
| 2026-04-27 13:34 | 39.19298 | 34.52529 | 25541 ft | 388 kts | 101° |
| 2026-04-27 13:35 | 39.18718 | 34.55860 | 25149 ft | 384 kts | 101° |
| 2026-04-27 13:35 | 39.18132 | 34.59216 | 24751 ft | 382 kts | 101° |
| 2026-04-27 13:35 | 39.17549 | 34.62556 | 24359 ft | 379 kts | 101° |
| 2026-04-27 13:35 | 39.16969 | 34.65867 | 23972 ft | 377 kts | 101° |
| 2026-04-27 13:36 | 39.16394 | 34.69150 | 23583 ft | 375 kts | 101° |
| 2026-04-27 13:36 | 39.15820 | 34.72412 | 23131 ft | 372 kts | 101° |
| 2026-04-27 13:36 | 39.15249 | 34.75657 | 22732 ft | 369 kts | 101° |
| 2026-04-27 13:36 | 39.14691 | 34.78820 | 22355 ft | 365 kts | 101° |
| 2026-04-27 13:37 | 39.14130 | 34.81996 | 21985 ft | 362 kts | 101° |
| 2026-04-27 13:37 | 39.13575 | 34.85141 | 21618 ft | 359 kts | 101° |
| 2026-04-27 13:37 | 39.13021 | 34.88264 | 21248 ft | 355 kts | 101° |
| 2026-04-27 13:37 | 39.12472 | 34.91358 | 20882 ft | 352 kts | 101° |
| 2026-04-27 13:38 | 39.11926 | 34.94429 | 20528 ft | 350 kts | 101° |
| 2026-04-27 13:38 | 39.11382 | 34.97482 | 20170 ft | 347 kts | 101° |
| 2026-04-27 13:38 | 39.10850 | 35.00464 | 19824 ft | 345 kts | 101° |
| 2026-04-27 13:38 | 39.10316 | 35.03460 | 19468 ft | 342 kts | 101° |
| 2026-04-27 13:39 | 39.09782 | 35.06437 | 19122 ft | 340 kts | 101° |
| 2026-04-27 13:39 | 39.09252 | 35.09397 | 18773 ft | 339 kts | 101° |
| 2026-04-27 13:39 | 39.08722 | 35.12352 | 18422 ft | 337 kts | 101° |
| 2026-04-27 13:39 | 39.08195 | 35.15284 | 18038 ft | 336 kts | 101° |
| 2026-04-27 13:40 | 39.07668 | 35.18211 | 17663 ft | 333 kts | 101° |
| 2026-04-27 13:40 | 39.07147 | 35.21106 | 17316 ft | 331 kts | 101° |
| 2026-04-27 13:40 | 39.06652 | 35.23850 | 16989 ft | 328 kts | 101° |
| 2026-04-27 13:40 | 39.06135 | 35.26705 | 16651 ft | 326 kts | 101° |
| 2026-04-27 13:41 | 39.05630 | 35.29496 | 16316 ft | 323 kts | 101° |
| 2026-04-27 13:41 | 39.05113 | 35.32346 | 15982 ft | 321 kts | 101° |
| 2026-04-27 13:41 | 39.04544 | 35.35079 | 15615 ft | 321 kts | 111° |
| 2026-04-27 13:41 | 39.03318 | 35.37470 | 15261 ft | 323 kts | 134° |
| 2026-04-27 13:42 | 39.01488 | 35.39115 | 14949 ft | 322 kts | 154° |
| 2026-04-27 13:42 | 38.99456 | 35.40286 | 14628 ft | 319 kts | 155° |
| 2026-04-27 13:42 | 38.97419 | 35.41429 | 14301 ft | 318 kts | 156° |
| 2026-04-27 13:42 | 38.95373 | 35.42560 | 13960 ft | 318 kts | 156° |
| 2026-04-27 13:43 | 38.93368 | 35.43654 | 13594 ft | 318 kts | 156° |
| 2026-04-27 13:43 | 38.91329 | 35.44758 | 13204 ft | 318 kts | 156° |
| 2026-04-27 13:43 | 38.89284 | 35.45863 | 12853 ft | 316 kts | 156° |
| 2026-04-27 13:43 | 38.87264 | 35.46957 | 12489 ft | 315 kts | 156° |
| 2026-04-27 13:44 | 38.85248 | 35.48047 | 12192 ft | 311 kts | 156° |
| 2026-04-27 13:44 | 38.83285 | 35.49107 | 12075 ft | 301 kts | 156° |
| 2026-04-27 13:44 | 38.81381 | 35.50135 | 11942 ft | 293 kts | 156° |
| 2026-04-27 13:44 | 38.79531 | 35.51133 | 11795 ft | 285 kts | 157° |
| 2026-04-27 13:45 | 38.77725 | 35.52113 | 11648 ft | 277 kts | 155° |
| 2026-04-27 13:45 | 38.76184 | 35.53497 | 11411 ft | 270 kts | 129° |
| 2026-04-27 13:45 | 38.75309 | 35.55561 | 11043 ft | 268 kts | 101° |
| 2026-04-27 13:45 | 38.75237 | 35.57922 | 10688 ft | 265 kts | 80° |
| 2026-04-27 13:46 | 38.75540 | 35.60268 | 10259 ft | 270 kts | 77° |
| 2026-04-27 13:46 | 38.75888 | 35.62680 | 9689 ft | 280 kts | 73° |
| 2026-04-27 13:46 | 38.76786 | 35.64840 | 9211 ft | 275 kts | 40° |
| 2026-04-27 13:46 | 38.78436 | 35.65844 | 9067 ft | 260 kts | 4° |
| 2026-04-27 13:47 | 38.80122 | 35.65343 | 9008 ft | 247 kts | 326° |
| 2026-04-27 13:47 | 38.81109 | 35.63643 | 8987 ft | 239 kts | 286° |
| 2026-04-27 13:47 | 38.80970 | 35.61559 | 8971 ft | 240 kts | 248° |
| 2026-04-27 13:47 | 38.80098 | 35.59698 | 9042 ft | 246 kts | 240° |
| 2026-04-27 13:48 | 38.79196 | 35.57862 | 9014 ft | 246 kts | 241° |
| 2026-04-27 13:48 | 38.78339 | 35.55963 | 8999 ft | 245 kts | 245° |
| 2026-04-27 13:48 | 38.77786 | 35.53924 | 8993 ft | 241 kts | 262° |
| 2026-04-27 13:48 | 38.77460 | 35.51815 | 9000 ft | 240 kts | 264° |
| 2026-04-27 13:49 | 38.77583 | 35.49735 | 8943 ft | 233 kts | 292° |
| 2026-04-27 13:49 | 38.78422 | 35.47991 | 9011 ft | 231 kts | 317° |
| 2026-04-27 13:49 | 38.79763 | 35.46896 | 9008 ft | 230 kts | 341° |
| 2026-04-27 13:49 | 38.81341 | 35.46626 | 8996 ft | 231 kts | 5° |
| 2026-04-27 13:50 | 38.82872 | 35.47218 | 8985 ft | 233 kts | 28° |
| 2026-04-27 13:50 | 38.84114 | 35.48557 | 8991 ft | 236 kts | 50° |
| 2026-04-27 13:50 | 38.84860 | 35.50436 | 9018 ft | 239 kts | 70° |
| 2026-04-27 13:50 | 38.85341 | 35.52488 | 9009 ft | 241 kts | 72° |
| 2026-04-27 13:51 | 38.85785 | 35.54529 | 9004 ft | 240 kts | 72° |
| 2026-04-27 13:51 | 38.86230 | 35.56599 | 8999 ft | 240 kts | 72° |
| 2026-04-27 13:51 | 38.86668 | 35.58669 | 9010 ft | 240 kts | 72° |
| 2026-04-27 13:51 | 38.86801 | 35.60810 | 8964 ft | 243 kts | 98° |
| 2026-04-27 13:52 | 38.86114 | 35.62790 | 9000 ft | 248 kts | 127° |
| 2026-04-27 13:52 | 38.84765 | 35.64164 | 8997 ft | 252 kts | 156° |
| 2026-04-27 13:52 | 38.83060 | 35.64620 | 9001 ft | 252 kts | 183° |
| 2026-04-27 13:52 | 38.81376 | 35.64078 | 9015 ft | 251 kts | 210° |
| 2026-04-27 13:53 | 38.79320 | 35.60747 | 9003 ft | 241 kts | 257° |
| 2026-04-27 13:53 | 38.78864 | 35.58667 | 9010 ft | 243 kts | 257° |
| 2026-04-27 13:53 | 38.78434 | 35.56576 | 8999 ft | 242 kts | 258° |
| 2026-04-27 13:54 | 38.78032 | 35.54513 | 8994 ft | 241 kts | 259° |
| 2026-04-27 13:54 | 38.77636 | 35.52422 | 9014 ft | 242 kts | 259° |
| 2026-04-27 13:54 | 38.77514 | 35.50315 | 8932 ft | 234 kts | 283° |
| 2026-04-27 13:54 | 38.78141 | 35.48432 | 8999 ft | 231 kts | 309° |
| 2026-04-27 13:55 | 38.79342 | 35.47092 | 9009 ft | 230 kts | 334° |
| 2026-04-27 13:55 | 38.80871 | 35.46558 | 8999 ft | 230 kts | 358° |
| 2026-04-27 13:55 | 38.82446 | 35.46898 | 8995 ft | 232 kts | 21° |
| 2026-04-27 13:55 | 38.83795 | 35.48043 | 8991 ft | 235 kts | 44° |
| 2026-04-27 13:56 | 38.84689 | 35.49796 | 9026 ft | 238 kts | 66° |
| 2026-04-27 13:56 | 38.85207 | 35.51826 | 9011 ft | 240 kts | 70° |
| 2026-04-27 13:56 | 38.85674 | 35.53879 | 9000 ft | 240 kts | 72° |
| 2026-04-27 13:56 | 38.86108 | 35.55946 | 9002 ft | 240 kts | 72° |
| 2026-04-27 13:57 | 38.86502 | 35.58029 | 9007 ft | 240 kts | 75° |
| 2026-04-27 13:57 | 38.86785 | 35.60152 | 8980 ft | 243 kts | 89° |
| 2026-04-27 13:57 | 38.86604 | 35.61566 | 8969 ft | 244 kts | 108° |
| 2026-04-27 13:57 | 38.85233 | 35.63849 | 8996 ft | 251 kts | 146° |
| 2026-04-27 13:58 | 38.83610 | 35.64634 | 9000 ft | 252 kts | 174° |
| 2026-04-27 13:58 | 38.81879 | 35.64414 | 9007 ft | 251 kts | 201° |
| 2026-04-27 13:58 | 38.80850 | 35.63738 | 8997 ft | 249 kts | 219° |
| 2026-04-27 13:58 | 38.79729 | 35.62104 | 8990 ft | 243 kts | 246° |
| 2026-04-27 13:59 | 38.79171 | 35.60075 | 9013 ft | 242 kts | 257° |
| 2026-04-27 13:59 | 38.78722 | 35.57994 | 9004 ft | 243 kts | 258° |
| 2026-04-27 13:59 | 38.78300 | 35.55899 | 8998 ft | 242 kts | 258° |
| 2026-04-27 13:59 | 38.77897 | 35.53801 | 9009 ft | 242 kts | 259° |
| 2026-04-27 14:00 | 38.77531 | 35.51705 | 8948 ft | 237 kts | 266° |
| 2026-04-27 14:00 | 38.77670 | 35.49682 | 8881 ft | 221 kts | 287° |
| 2026-04-27 14:00 | 38.78019 | 35.47820 | 8814 ft | 210 kts | 285° |
| 2026-04-27 14:00 | 38.78363 | 35.46052 | 8733 ft | 199 kts | 283° |
| 2026-04-27 14:01 | 38.78621 | 35.44322 | 8665 ft | 199 kts | 283° |
| 2026-04-27 14:01 | 38.78878 | 35.42551 | 8623 ft | 205 kts | 283° |
| 2026-04-27 14:01 | 38.79133 | 35.40744 | 8559 ft | 206 kts | 283° |
| 2026-04-27 14:01 | 38.79383 | 35.38934 | 8500 ft | 206 kts | 282° |
| 2026-04-27 14:02 | 38.79629 | 35.37131 | 8429 ft | 206 kts | 283° |
| 2026-04-27 14:02 | 38.79877 | 35.35321 | 8376 ft | 205 kts | 282° |
| 2026-04-27 14:02 | 38.80119 | 35.33538 | 8307 ft | 205 kts | 283° |
| 2026-04-27 14:02 | 38.80286 | 35.32321 | 8282 ft | 205 kts | 283° |
| 2026-04-27 14:03 | 38.80609 | 35.29935 | 8278 ft | 206 kts | 283° |
| 2026-04-27 14:03 | 38.80692 | 35.29323 | 8279 ft | 206 kts | 283° |